sensor_id;sensor_type;location;lat;lon;timestamp;P1;durP1;ratioP1;P2;durP2;ratioP2
62724;SDS011;49026;52.600;4.694;2023-04-07T00:00:29;18.73;;;4.60;;
62724;SDS011;49026;52.600;4.694;2023-04-07T00:02:55;23.95;;;4.45;;
62724;SDS011;49026;52.600;4.694;2023-04-07T00:05:23;22.88;;;3.90;;
62724;SDS011;49026;52.600;4.694;2023-04-07T00:10:16;14.20;;;3.50;;
62724;SDS011;49026;52.600;4.694;2023-04-07T00:12:41;20.90;;;4.45;;
62724;SDS011;49026;52.600;4.694;2023-04-07T00:15:07;16.98;;;3.78;;
62724;SDS011;49026;52.600;4.694;2023-04-07T00:17:35;22.33;;;4.32;;
62724;SDS011;49026;52.600;4.694;2023-04-07T00:20:00;23.80;;;5.07;;
62724;SDS011;49026;52.600;4.694;2023-04-07T00:22:28;18.42;;;3.97;;
62724;SDS011;49026;52.600;4.694;2023-04-07T00:24:53;24.92;;;5.15;;
62724;SDS011;49026;52.600;4.694;2023-04-07T00:27:19;25.67;;;3.72;;
62724;SDS011;49026;52.600;4.694;2023-04-07T00:29:44;15.98;;;3.45;;
62724;SDS011;49026;52.600;4.694;2023-04-07T00:32:10;28.70;;;3.85;;
62724;SDS011;49026;52.600;4.694;2023-04-07T00:34:36;26.23;;;4.05;;
62724;SDS011;49026;52.600;4.694;2023-04-07T00:37:01;28.60;;;3.63;;
62724;SDS011;49026;52.600;4.694;2023-04-07T00:39:26;17.02;;;3.20;;
62724;SDS011;49026;52.600;4.694;2023-04-07T00:41:52;22.77;;;4.55;;
62724;SDS011;49026;52.600;4.694;2023-04-07T00:44:17;17.67;;;5.63;;
62724;SDS011;49026;52.600;4.694;2023-04-07T00:46:46;7.85;;;3.25;;
62724;SDS011;49026;52.600;4.694;2023-04-07T00:49:11;18.05;;;3.85;;
62724;SDS011;49026;52.600;4.694;2023-04-07T00:51:37;19.33;;;4.82;;
62724;SDS011;49026;52.600;4.694;2023-04-07T00:54:04;16.17;;;3.22;;
62724;SDS011;49026;52.600;4.694;2023-04-07T00:56:30;32.00;;;4.45;;
62724;SDS011;49026;52.600;4.694;2023-04-07T00:58:56;19.10;;;3.95;;
62724;SDS011;49026;52.600;4.694;2023-04-07T01:01:25;20.92;;;4.50;;
62724;SDS011;49026;52.600;4.694;2023-04-07T01:04:00;26.35;;;4.32;;
62724;SDS011;49026;52.600;4.694;2023-04-07T01:06:30;21.42;;;3.55;;
62724;SDS011;49026;52.600;4.694;2023-04-07T01:12:09;21.38;;;3.42;;
62724;SDS011;49026;52.600;4.694;2023-04-07T01:14:45;27.77;;;4.55;;
62724;SDS011;49026;52.600;4.694;2023-04-07T01:17:14;17.77;;;3.25;;
62724;SDS011;49026;52.600;4.694;2023-04-07T01:19:45;9.05;;;2.33;;
62724;SDS011;49026;52.600;4.694;2023-04-07T01:22:13;17.67;;;3.40;;
62724;SDS011;49026;52.600;4.694;2023-04-07T01:25:01;27.83;;;4.43;;
62724;SDS011;49026;52.600;4.694;2023-04-07T01:27:53;16.27;;;3.10;;
62724;SDS011;49026;52.600;4.694;2023-04-07T01:30:35;11.40;;;3.10;;
62724;SDS011;49026;52.600;4.694;2023-04-07T01:33:03;17.20;;;3.03;;
62724;SDS011;49026;52.600;4.694;2023-04-07T01:35:32;8.95;;;2.67;;
62724;SDS011;49026;52.600;4.694;2023-04-07T01:38:00;24.70;;;3.97;;
62724;SDS011;49026;52.600;4.694;2023-04-07T01:40:27;24.92;;;3.53;;
62724;SDS011;49026;52.600;4.694;2023-04-07T01:42:53;29.48;;;3.88;;
62724;SDS011;49026;52.600;4.694;2023-04-07T01:45:21;25.35;;;4.00;;
62724;SDS011;49026;52.600;4.694;2023-04-07T01:47:47;17.15;;;3.17;;
62724;SDS011;49026;52.600;4.694;2023-04-07T01:50:14;23.25;;;3.20;;
62724;SDS011;49026;52.600;4.694;2023-04-07T01:52:40;16.58;;;3.08;;
62724;SDS011;49026;52.600;4.694;2023-04-07T01:55:06;21.02;;;3.92;;
62724;SDS011;49026;52.600;4.694;2023-04-07T01:57:38;17.38;;;3.17;;
62724;SDS011;49026;52.600;4.694;2023-04-07T02:00:03;26.95;;;3.97;;
62724;SDS011;49026;52.600;4.694;2023-04-07T02:02:35;16.30;;;4.85;;
62724;SDS011;49026;52.600;4.694;2023-04-07T02:05:08;19.15;;;4.72;;
62724;SDS011;49026;52.600;4.694;2023-04-07T02:07:51;17.35;;;6.07;;
62724;SDS011;49026;52.600;4.694;2023-04-07T02:10:20;19.58;;;6.18;;
62724;SDS011;49026;52.600;4.694;2023-04-07T02:12:47;21.30;;;5.32;;
62724;SDS011;49026;52.600;4.694;2023-04-07T02:15:16;20.23;;;4.72;;
62724;SDS011;49026;52.600;4.694;2023-04-07T02:17:43;18.90;;;4.55;;
62724;SDS011;49026;52.600;4.694;2023-04-07T02:20:13;27.05;;;4.45;;
62724;SDS011;49026;52.600;4.694;2023-04-07T02:22:40;24.55;;;5.30;;
62724;SDS011;49026;52.600;4.694;2023-04-07T02:25:19;27.13;;;5.35;;
62724;SDS011;49026;52.600;4.694;2023-04-07T02:27:45;22.23;;;6.30;;
62724;SDS011;49026;52.600;4.694;2023-04-07T02:30:10;27.85;;;4.68;;
62724;SDS011;49026;52.600;4.694;2023-04-07T02:32:38;23.42;;;4.82;;
62724;SDS011;49026;52.600;4.694;2023-04-07T02:35:03;20.38;;;5.32;;
62724;SDS011;49026;52.600;4.694;2023-04-07T02:37:29;23.63;;;5.22;;
62724;SDS011;49026;52.600;4.694;2023-04-07T02:39:54;23.02;;;5.53;;
62724;SDS011;49026;52.600;4.694;2023-04-07T02:42:19;22.30;;;4.10;;
62724;SDS011;49026;52.600;4.694;2023-04-07T02:44:47;18.13;;;4.00;;
62724;SDS011;49026;52.600;4.694;2023-04-07T02:47:15;25.77;;;4.47;;
62724;SDS011;49026;52.600;4.694;2023-04-07T02:49:40;28.30;;;4.28;;
62724;SDS011;49026;52.600;4.694;2023-04-07T02:52:06;28.15;;;3.92;;
62724;SDS011;49026;52.600;4.694;2023-04-07T02:54:32;19.38;;;3.20;;
62724;SDS011;49026;52.600;4.694;2023-04-07T02:57:02;25.88;;;4.57;;
62724;SDS011;49026;52.600;4.694;2023-04-07T02:59:28;25.27;;;3.78;;
62724;SDS011;49026;52.600;4.694;2023-04-07T03:01:56;26.92;;;3.80;;
62724;SDS011;49026;52.600;4.694;2023-04-07T03:04:21;25.35;;;3.22;;
62724;SDS011;49026;52.600;4.694;2023-04-07T03:06:46;26.42;;;4.28;;
62724;SDS011;49026;52.600;4.694;2023-04-07T03:09:11;15.85;;;3.50;;
62724;SDS011;49026;52.600;4.694;2023-04-07T03:11:37;22.00;;;4.22;;
62724;SDS011;49026;52.600;4.694;2023-04-07T03:14:02;22.20;;;4.57;;
62724;SDS011;49026;52.600;4.694;2023-04-07T03:16:28;21.35;;;4.45;;
62724;SDS011;49026;52.600;4.694;2023-04-07T03:18:55;20.25;;;3.45;;
62724;SDS011;49026;52.600;4.694;2023-04-07T03:21:22;29.25;;;4.78;;
62724;SDS011;49026;52.600;4.694;2023-04-07T03:23:50;26.10;;;5.20;;
62724;SDS011;49026;52.600;4.694;2023-04-07T03:26:15;22.98;;;3.17;;
62724;SDS011;49026;52.600;4.694;2023-04-07T03:28:41;20.05;;;3.85;;
62724;SDS011;49026;52.600;4.694;2023-04-07T03:31:06;27.98;;;4.65;;
62724;SDS011;49026;52.600;4.694;2023-04-07T03:33:34;14.95;;;3.67;;
62724;SDS011;49026;52.600;4.694;2023-04-07T03:35:59;22.17;;;3.15;;
62724;SDS011;49026;52.600;4.694;2023-04-07T03:38:24;18.75;;;4.03;;
62724;SDS011;49026;52.600;4.694;2023-04-07T03:40:50;31.73;;;4.45;;
62724;SDS011;49026;52.600;4.694;2023-04-07T03:43:15;21.05;;;3.58;;
62724;SDS011;49026;52.600;4.694;2023-04-07T03:45:41;27.85;;;3.42;;
62724;SDS011;49026;52.600;4.694;2023-04-07T03:48:07;27.98;;;4.30;;
62724;SDS011;49026;52.600;4.694;2023-04-07T03:50:45;31.25;;;4.28;;
62724;SDS011;49026;52.600;4.694;2023-04-07T03:53:10;27.48;;;4.88;;
62724;SDS011;49026;52.600;4.694;2023-04-07T03:55:37;21.13;;;4.25;;
62724;SDS011;49026;52.600;4.694;2023-04-07T03:58:03;26.88;;;4.88;;
62724;SDS011;49026;52.600;4.694;2023-04-07T04:00:29;18.60;;;3.30;;
62724;SDS011;49026;52.600;4.694;2023-04-07T04:02:57;28.33;;;3.75;;
62724;SDS011;49026;52.600;4.694;2023-04-07T04:05:22;25.58;;;4.00;;
62724;SDS011;49026;52.600;4.694;2023-04-07T04:07:47;36.03;;;4.90;;
62724;SDS011;49026;52.600;4.694;2023-04-07T04:10:15;23.20;;;3.47;;
62724;SDS011;49026;52.600;4.694;2023-04-07T04:12:40;25.75;;;3.72;;
62724;SDS011;49026;52.600;4.694;2023-04-07T04:15:06;31.75;;;3.83;;
62724;SDS011;49026;52.600;4.694;2023-04-07T04:17:31;21.75;;;4.10;;
62724;SDS011;49026;52.600;4.694;2023-04-07T04:19:57;24.98;;;2.92;;
62724;SDS011;49026;52.600;4.694;2023-04-07T04:22:22;28.38;;;3.60;;
62724;SDS011;49026;52.600;4.694;2023-04-07T04:24:47;25.10;;;3.50;;
62724;SDS011;49026;52.600;4.694;2023-04-07T04:27:15;23.25;;;3.95;;
62724;SDS011;49026;52.600;4.694;2023-04-07T04:29:40;29.38;;;3.58;;
62724;SDS011;49026;52.600;4.694;2023-04-07T04:32:05;28.13;;;3.80;;
62724;SDS011;49026;52.600;4.694;2023-04-07T04:34:31;20.35;;;3.92;;
62724;SDS011;49026;52.600;4.694;2023-04-07T04:36:56;24.90;;;3.33;;
62724;SDS011;49026;52.600;4.694;2023-04-07T04:39:21;52.58;;;4.55;;
62724;SDS011;49026;52.600;4.694;2023-04-07T04:41:49;17.55;;;3.22;;
62724;SDS011;49026;52.600;4.694;2023-04-07T04:44:16;17.23;;;3.03;;
62724;SDS011;49026;52.600;4.694;2023-04-07T04:46:41;24.48;;;3.35;;
62724;SDS011;49026;52.600;4.694;2023-04-07T04:49:07;23.58;;;3.17;;
62724;SDS011;49026;52.600;4.694;2023-04-07T04:51:32;23.38;;;3.58;;
62724;SDS011;49026;52.600;4.694;2023-04-07T04:53:57;22.48;;;3.40;;
62724;SDS011;49026;52.600;4.694;2023-04-07T04:56:28;28.85;;;3.55;;
62724;SDS011;49026;52.600;4.694;2023-04-07T04:58:53;16.08;;;3.42;;
62724;SDS011;49026;52.600;4.694;2023-04-07T05:01:18;23.95;;;3.28;;
62724;SDS011;49026;52.600;4.694;2023-04-07T05:03:44;18.60;;;3.03;;
62724;SDS011;49026;52.600;4.694;2023-04-07T05:06:09;25.40;;;4.15;;
62724;SDS011;49026;52.600;4.694;2023-04-07T05:08:35;18.90;;;2.88;;
62724;SDS011;49026;52.600;4.694;2023-04-07T05:11:02;16.85;;;3.05;;
62724;SDS011;49026;52.600;4.694;2023-04-07T05:13:28;16.23;;;2.92;;
62724;SDS011;49026;52.600;4.694;2023-04-07T05:15:57;20.20;;;2.90;;
62724;SDS011;49026;52.600;4.694;2023-04-07T05:18:22;19.15;;;2.63;;
62724;SDS011;49026;52.600;4.694;2023-04-07T05:20:50;22.65;;;2.88;;
62724;SDS011;49026;52.600;4.694;2023-04-07T05:23:15;16.58;;;2.28;;
62724;SDS011;49026;52.600;4.694;2023-04-07T05:25:40;17.00;;;2.70;;
62724;SDS011;49026;52.600;4.694;2023-04-07T05:28:06;11.18;;;1.98;;
62724;SDS011;49026;52.600;4.694;2023-04-07T05:30:31;16.80;;;2.42;;
62724;SDS011;49026;52.600;4.694;2023-04-07T05:32:56;17.48;;;2.65;;
62724;SDS011;49026;52.600;4.694;2023-04-07T05:35:24;12.77;;;2.47;;
62724;SDS011;49026;52.600;4.694;2023-04-07T05:37:49;16.08;;;2.42;;
62724;SDS011;49026;52.600;4.694;2023-04-07T05:40:15;12.50;;;2.58;;
62724;SDS011;49026;52.600;4.694;2023-04-07T05:42:43;11.55;;;2.08;;
62724;SDS011;49026;52.600;4.694;2023-04-07T05:45:08;15.50;;;2.63;;
62724;SDS011;49026;52.600;4.694;2023-04-07T05:47:34;11.82;;;1.80;;
62724;SDS011;49026;52.600;4.694;2023-04-07T05:49:59;12.65;;;2.22;;
62724;SDS011;49026;52.600;4.694;2023-04-07T05:52:27;21.15;;;2.75;;
62724;SDS011;49026;52.600;4.694;2023-04-07T05:54:52;16.33;;;2.47;;
62724;SDS011;49026;52.600;4.694;2023-04-07T05:57:17;13.27;;;2.10;;
62724;SDS011;49026;52.600;4.694;2023-04-07T05:59:43;7.32;;;1.60;;
62724;SDS011;49026;52.600;4.694;2023-04-07T06:02:08;17.08;;;2.15;;
62724;SDS011;49026;52.600;4.694;2023-04-07T06:04:33;10.32;;;1.92;;
62724;SDS011;49026;52.600;4.694;2023-04-07T06:06:59;16.73;;;1.73;;
62724;SDS011;49026;52.600;4.694;2023-04-07T06:09:25;15.60;;;2.85;;
62724;SDS011;49026;52.600;4.694;2023-04-07T06:11:53;13.02;;;2.15;;
62724;SDS011;49026;52.600;4.694;2023-04-07T06:14:18;11.38;;;1.73;;
62724;SDS011;49026;52.600;4.694;2023-04-07T06:16:43;12.93;;;1.63;;
62724;SDS011;49026;52.600;4.694;2023-04-07T06:19:11;16.92;;;1.58;;
62724;SDS011;49026;52.600;4.694;2023-04-07T06:21:37;15.50;;;1.85;;
62724;SDS011;49026;52.600;4.694;2023-04-07T06:24:06;6.97;;;1.83;;
62724;SDS011;49026;52.600;4.694;2023-04-07T06:26:31;11.88;;;1.88;;
62724;SDS011;49026;52.600;4.694;2023-04-07T06:28:57;7.90;;;1.35;;
62724;SDS011;49026;52.600;4.694;2023-04-07T06:31:23;11.00;;;1.77;;
62724;SDS011;49026;52.600;4.694;2023-04-07T06:33:48;13.30;;;2.00;;
62724;SDS011;49026;52.600;4.694;2023-04-07T06:36:16;8.00;;;1.50;;
62724;SDS011;49026;52.600;4.694;2023-04-07T06:38:42;6.28;;;1.40;;
62724;SDS011;49026;52.600;4.694;2023-04-07T06:41:10;13.43;;;2.10;;
62724;SDS011;49026;52.600;4.694;2023-04-07T06:43:40;24.52;;;2.65;;
62724;SDS011;49026;52.600;4.694;2023-04-07T06:46:06;10.38;;;1.38;;
62724;SDS011;49026;52.600;4.694;2023-04-07T06:48:31;13.32;;;2.92;;
62724;SDS011;49026;52.600;4.694;2023-04-07T06:50:59;17.25;;;2.30;;
62724;SDS011;49026;52.600;4.694;2023-04-07T06:53:26;13.55;;;2.25;;
62724;SDS011;49026;52.600;4.694;2023-04-07T06:56:08;10.10;;;1.40;;
62724;SDS011;49026;52.600;4.694;2023-04-07T06:58:35;14.48;;;2.17;;
62724;SDS011;49026;52.600;4.694;2023-04-07T07:01:03;17.25;;;2.25;;
62724;SDS011;49026;52.600;4.694;2023-04-07T07:03:30;8.10;;;1.92;;
62724;SDS011;49026;52.600;4.694;2023-04-07T07:05:55;9.10;;;1.48;;
62724;SDS011;49026;52.600;4.694;2023-04-07T07:08:21;7.38;;;1.73;;
62724;SDS011;49026;52.600;4.694;2023-04-07T07:10:47;16.13;;;1.52;;
62724;SDS011;49026;52.600;4.694;2023-04-07T07:13:13;6.53;;;1.10;;
62724;SDS011;49026;52.600;4.694;2023-04-07T07:15:38;9.57;;;1.83;;
62724;SDS011;49026;52.600;4.694;2023-04-07T07:18:06;7.97;;;1.52;;
62724;SDS011;49026;52.600;4.694;2023-04-07T07:20:31;7.13;;;1.55;;
62724;SDS011;49026;52.600;4.694;2023-04-07T07:22:56;28.08;;;1.88;;
62724;SDS011;49026;52.600;4.694;2023-04-07T07:25:24;12.05;;;1.95;;
62724;SDS011;49026;52.600;4.694;2023-04-07T07:27:52;13.20;;;1.98;;
62724;SDS011;49026;52.600;4.694;2023-04-07T07:30:21;9.98;;;1.45;;
62724;SDS011;49026;52.600;4.694;2023-04-07T07:32:48;10.55;;;1.50;;
62724;SDS011;49026;52.600;4.694;2023-04-07T07:35:13;7.15;;;1.35;;
62724;SDS011;49026;52.600;4.694;2023-04-07T07:37:40;15.02;;;2.05;;
62724;SDS011;49026;52.600;4.694;2023-04-07T07:40:05;11.80;;;2.10;;
62724;SDS011;49026;52.600;4.694;2023-04-07T07:42:34;13.00;;;2.90;;
62724;SDS011;49026;52.600;4.694;2023-04-07T07:44:59;9.05;;;1.42;;
62724;SDS011;49026;52.600;4.694;2023-04-07T07:47:24;14.98;;;2.45;;
62724;SDS011;49026;52.600;4.694;2023-04-07T07:49:52;13.90;;;2.13;;
62724;SDS011;49026;52.600;4.694;2023-04-07T07:52:18;12.70;;;1.90;;
62724;SDS011;49026;52.600;4.694;2023-04-07T07:54:44;6.82;;;1.58;;
62724;SDS011;49026;52.600;4.694;2023-04-07T07:57:10;7.10;;;1.55;;
62724;SDS011;49026;52.600;4.694;2023-04-07T07:59:35;9.15;;;1.65;;
62724;SDS011;49026;52.600;4.694;2023-04-07T08:02:00;23.52;;;2.60;;
62724;SDS011;49026;52.600;4.694;2023-04-07T08:04:26;11.52;;;2.10;;
62724;SDS011;49026;52.600;4.694;2023-04-07T08:06:59;13.20;;;1.88;;
62724;SDS011;49026;52.600;4.694;2023-04-07T08:09:24;10.93;;;1.85;;
62724;SDS011;49026;52.600;4.694;2023-04-07T08:11:50;7.78;;;1.27;;
62724;SDS011;49026;52.600;4.694;2023-04-07T08:14:18;6.60;;;1.88;;
62724;SDS011;49026;52.600;4.694;2023-04-07T08:16:44;5.40;;;1.23;;
62724;SDS011;49026;52.600;4.694;2023-04-07T08:19:09;8.35;;;1.20;;
62724;SDS011;49026;52.600;4.694;2023-04-07T08:21:36;7.28;;;1.25;;
62724;SDS011;49026;52.600;4.694;2023-04-07T08:24:01;4.57;;;1.15;;
62724;SDS011;49026;52.600;4.694;2023-04-07T08:26:29;16.95;;;1.27;;
62724;SDS011;49026;52.600;4.694;2023-04-07T08:28:57;4.68;;;1.10;;
62724;SDS011;49026;52.600;4.694;2023-04-07T08:31:23;9.80;;;1.10;;
62724;SDS011;49026;52.600;4.694;2023-04-07T08:33:48;8.07;;;1.58;;
62724;SDS011;49026;52.600;4.694;2023-04-07T08:36:22;9.40;;;1.83;;
62724;SDS011;49026;52.600;4.694;2023-04-07T08:38:51;8.85;;;1.30;;
62724;SDS011;49026;52.600;4.694;2023-04-07T08:41:19;16.92;;;2.70;;
62724;SDS011;49026;52.600;4.694;2023-04-07T08:43:54;18.52;;;2.33;;
62724;SDS011;49026;52.600;4.694;2023-04-07T08:46:21;15.70;;;2.08;;
62724;SDS011;49026;52.600;4.694;2023-04-07T08:48:50;7.25;;;2.28;;
62724;SDS011;49026;52.600;4.694;2023-04-07T08:51:17;9.68;;;1.38;;
62724;SDS011;49026;52.600;4.694;2023-04-07T08:53:51;16.45;;;1.95;;
62724;SDS011;49026;52.600;4.694;2023-04-07T08:56:18;14.40;;;1.90;;
62724;SDS011;49026;52.600;4.694;2023-04-07T08:58:47;10.98;;;2.00;;
62724;SDS011;49026;52.600;4.694;2023-04-07T09:01:13;18.35;;;2.75;;
62724;SDS011;49026;52.600;4.694;2023-04-07T09:03:40;14.00;;;2.33;;
62724;SDS011;49026;52.600;4.694;2023-04-07T09:06:06;16.45;;;2.65;;
62724;SDS011;49026;52.600;4.694;2023-04-07T09:08:34;22.63;;;2.72;;
62724;SDS011;49026;52.600;4.694;2023-04-07T09:11:00;23.85;;;3.38;;
62724;SDS011;49026;52.600;4.694;2023-04-07T09:13:25;22.33;;;3.13;;
62724;SDS011;49026;52.600;4.694;2023-04-07T09:15:53;14.13;;;2.22;;
62724;SDS011;49026;52.600;4.694;2023-04-07T09:18:18;32.17;;;3.97;;
62724;SDS011;49026;52.600;4.694;2023-04-07T09:20:53;31.73;;;3.35;;
62724;SDS011;49026;52.600;4.694;2023-04-07T09:23:26;19.35;;;3.03;;
62724;SDS011;49026;52.600;4.694;2023-04-07T09:25:58;24.85;;;3.15;;
62724;SDS011;49026;52.600;4.694;2023-04-07T09:28:25;21.70;;;2.75;;
62724;SDS011;49026;52.600;4.694;2023-04-07T09:31:02;15.95;;;3.22;;
62724;SDS011;49026;52.600;4.694;2023-04-07T09:33:28;20.45;;;3.60;;
62724;SDS011;49026;52.600;4.694;2023-04-07T09:35:56;23.50;;;3.65;;
62724;SDS011;49026;52.600;4.694;2023-04-07T09:38:22;27.90;;;4.15;;
62724;SDS011;49026;52.600;4.694;2023-04-07T09:40:55;34.08;;;4.22;;
62724;SDS011;49026;52.600;4.694;2023-04-07T09:43:29;18.65;;;3.45;;
62724;SDS011;49026;52.600;4.694;2023-04-07T09:46:05;22.83;;;3.97;;
62724;SDS011;49026;52.600;4.694;2023-04-07T09:49:03;18.30;;;3.20;;
62724;SDS011;49026;52.600;4.694;2023-04-07T09:51:29;20.05;;;3.80;;
62724;SDS011;49026;52.600;4.694;2023-04-07T09:53:54;25.40;;;4.07;;
62724;SDS011;49026;52.600;4.694;2023-04-07T09:56:22;20.23;;;3.17;;
62724;SDS011;49026;52.600;4.694;2023-04-07T09:58:50;20.45;;;3.92;;
62724;SDS011;49026;52.600;4.694;2023-04-07T10:01:15;22.65;;;4.43;;
62724;SDS011;49026;52.600;4.694;2023-04-07T10:03:46;24.75;;;3.10;;
62724;SDS011;49026;52.600;4.694;2023-04-07T10:06:12;20.63;;;2.97;;
62724;SDS011;49026;52.600;4.694;2023-04-07T10:08:41;21.60;;;3.15;;
62724;SDS011;49026;52.600;4.694;2023-04-07T10:11:10;16.33;;;2.90;;
62724;SDS011;49026;52.600;4.694;2023-04-07T10:13:35;30.52;;;3.88;;
62724;SDS011;49026;52.600;4.694;2023-04-07T10:16:06;29.65;;;3.85;;
62724;SDS011;49026;52.600;4.694;2023-04-07T10:18:34;27.17;;;4.65;;
62724;SDS011;49026;52.600;4.694;2023-04-07T10:21:01;24.05;;;4.10;;
62724;SDS011;49026;52.600;4.694;2023-04-07T10:23:34;25.35;;;3.80;;
62724;SDS011;49026;52.600;4.694;2023-04-07T10:26:07;20.63;;;3.27;;
62724;SDS011;49026;52.600;4.694;2023-04-07T10:28:34;17.65;;;3.20;;
62724;SDS011;49026;52.600;4.694;2023-04-07T10:31:08;14.60;;;3.13;;
62724;SDS011;49026;52.600;4.694;2023-04-07T10:33:44;21.92;;;4.00;;
62724;SDS011;49026;52.600;4.694;2023-04-07T10:36:16;29.73;;;3.60;;
62724;SDS011;49026;52.600;4.694;2023-04-07T10:38:54;22.33;;;3.10;;
62724;SDS011;49026;52.600;4.694;2023-04-07T10:44:04;20.60;;;3.35;;
62724;SDS011;49026;52.600;4.694;2023-04-07T10:49:14;17.15;;;3.72;;
62724;SDS011;49026;52.600;4.694;2023-04-07T10:51:45;20.00;;;4.03;;
62724;SDS011;49026;52.600;4.694;2023-04-07T10:54:38;19.23;;;3.10;;
62724;SDS011;49026;52.600;4.694;2023-04-07T10:57:10;19.48;;;3.30;;
62724;SDS011;49026;52.600;4.694;2023-04-07T11:00:19;14.88;;;3.70;;
62724;SDS011;49026;52.600;4.694;2023-04-07T11:02:36;72.10;;;6.28;;
62724;SDS011;49026;52.600;4.694;2023-04-07T11:05:03;21.13;;;4.43;;
62724;SDS011;49026;52.600;4.694;2023-04-07T11:07:43;20.38;;;3.53;;
62724;SDS011;49026;52.600;4.694;2023-04-07T11:10:10;13.68;;;3.88;;
62724;SDS011;49026;52.600;4.694;2023-04-07T11:12:39;18.13;;;2.90;;
62724;SDS011;49026;52.600;4.694;2023-04-07T11:15:23;23.67;;;4.55;;
62724;SDS011;49026;52.600;4.694;2023-04-07T11:23:06;18.42;;;3.30;;
62724;SDS011;49026;52.600;4.694;2023-04-07T11:25:31;28.00;;;3.47;;
62724;SDS011;49026;52.600;4.694;2023-04-07T11:27:57;11.75;;;2.58;;
62724;SDS011;49026;52.600;4.694;2023-04-07T11:30:23;14.52;;;3.00;;
62724;SDS011;49026;52.600;4.694;2023-04-07T11:32:49;20.38;;;3.95;;
62724;SDS011;49026;52.600;4.694;2023-04-07T11:35:26;19.83;;;3.50;;
62724;SDS011;49026;52.600;4.694;2023-04-07T11:37:58;21.02;;;3.50;;
62724;SDS011;49026;52.600;4.694;2023-04-07T11:40:34;12.75;;;3.25;;
62724;SDS011;49026;52.600;4.694;2023-04-07T11:43:01;22.67;;;3.78;;
62724;SDS011;49026;52.600;4.694;2023-04-07T11:45:26;15.07;;;3.50;;
62724;SDS011;49026;52.600;4.694;2023-04-07T11:47:52;14.52;;;3.15;;
62724;SDS011;49026;52.600;4.694;2023-04-07T11:50:41;20.80;;;4.30;;
62724;SDS011;49026;52.600;4.694;2023-04-07T11:53:07;24.15;;;3.30;;
62724;SDS011;49026;52.600;4.694;2023-04-07T11:55:33;23.30;;;3.17;;
62724;SDS011;49026;52.600;4.694;2023-04-07T11:58:07;23.70;;;3.67;;
62724;SDS011;49026;52.600;4.694;2023-04-07T12:00:51;15.13;;;3.08;;
62724;SDS011;49026;52.600;4.694;2023-04-07T12:03:19;15.45;;;3.33;;
62724;SDS011;49026;52.600;4.694;2023-04-07T12:05:45;16.65;;;3.25;;
62724;SDS011;49026;52.600;4.694;2023-04-07T12:08:10;16.58;;;2.10;;
62724;SDS011;49026;52.600;4.694;2023-04-07T12:10:38;17.38;;;2.55;;
62724;SDS011;49026;52.600;4.694;2023-04-07T12:13:05;15.82;;;2.55;;
62724;SDS011;49026;52.600;4.694;2023-04-07T12:15:34;15.45;;;3.20;;
62724;SDS011;49026;52.600;4.694;2023-04-07T12:18:03;11.93;;;2.28;;
62724;SDS011;49026;52.600;4.694;2023-04-07T12:20:28;18.15;;;3.30;;
62724;SDS011;49026;52.600;4.694;2023-04-07T12:22:56;21.27;;;3.50;;
62724;SDS011;49026;52.600;4.694;2023-04-07T12:25:25;18.10;;;2.70;;
62724;SDS011;49026;52.600;4.694;2023-04-07T12:27:51;13.48;;;3.17;;
62724;SDS011;49026;52.600;4.694;2023-04-07T12:30:16;27.52;;;5.07;;
62724;SDS011;49026;52.600;4.694;2023-04-07T12:32:45;22.30;;;3.95;;
62724;SDS011;49026;52.600;4.694;2023-04-07T12:35:11;16.70;;;3.50;;
62724;SDS011;49026;52.600;4.694;2023-04-07T12:37:36;18.60;;;3.55;;
62724;SDS011;49026;52.600;4.694;2023-04-07T12:40:02;20.15;;;3.30;;
62724;SDS011;49026;52.600;4.694;2023-04-07T12:42:28;16.95;;;2.95;;
62724;SDS011;49026;52.600;4.694;2023-04-07T12:44:53;21.38;;;3.92;;
62724;SDS011;49026;52.600;4.694;2023-04-07T12:47:18;18.10;;;3.60;;
62724;SDS011;49026;52.600;4.694;2023-04-07T12:49:44;13.48;;;3.30;;
62724;SDS011;49026;52.600;4.694;2023-04-07T12:52:10;17.45;;;3.25;;
62724;SDS011;49026;52.600;4.694;2023-04-07T12:54:36;18.67;;;3.47;;
62724;SDS011;49026;52.600;4.694;2023-04-07T12:57:04;20.08;;;4.47;;
62724;SDS011;49026;52.600;4.694;2023-04-07T12:59:29;16.83;;;3.20;;
62724;SDS011;49026;52.600;4.694;2023-04-07T13:01:55;15.60;;;2.75;;
62724;SDS011;49026;52.600;4.694;2023-04-07T13:04:20;10.90;;;3.00;;
62724;SDS011;49026;52.600;4.694;2023-04-07T13:06:46;12.07;;;2.80;;
62724;SDS011;49026;52.600;4.694;2023-04-07T13:09:11;16.80;;;3.65;;
62724;SDS011;49026;52.600;4.694;2023-04-07T13:11:36;11.45;;;2.85;;
62724;SDS011;49026;52.600;4.694;2023-04-07T13:14:01;14.10;;;3.28;;
62724;SDS011;49026;52.600;4.694;2023-04-07T13:16:27;19.13;;;4.85;;
62724;SDS011;49026;52.600;4.694;2023-04-07T13:18:52;17.30;;;3.67;;
62724;SDS011;49026;52.600;4.694;2023-04-07T13:21:18;14.20;;;3.83;;
62724;SDS011;49026;52.600;4.694;2023-04-07T13:23:43;15.57;;;3.42;;
62724;SDS011;49026;52.600;4.694;2023-04-07T13:26:15;19.35;;;3.65;;
62724;SDS011;49026;52.600;4.694;2023-04-07T13:28:40;12.77;;;3.80;;
62724;SDS011;49026;52.600;4.694;2023-04-07T13:31:06;17.25;;;3.78;;
62724;SDS011;49026;52.600;4.694;2023-04-07T13:33:33;25.67;;;5.32;;
62724;SDS011;49026;52.600;4.694;2023-04-07T13:36:01;14.82;;;3.97;;
62724;SDS011;49026;52.600;4.694;2023-04-07T13:38:27;12.13;;;3.60;;
62724;SDS011;49026;52.600;4.694;2023-04-07T13:40:52;19.80;;;5.22;;
62724;SDS011;49026;52.600;4.694;2023-04-07T13:43:17;23.23;;;4.60;;
62724;SDS011;49026;52.600;4.694;2023-04-07T13:45:42;15.57;;;4.63;;
62724;SDS011;49026;52.600;4.694;2023-04-07T13:48:08;18.50;;;4.43;;
62724;SDS011;49026;52.600;4.694;2023-04-07T13:50:34;24.88;;;4.45;;
62724;SDS011;49026;52.600;4.694;2023-04-07T13:53:00;17.38;;;5.35;;
62724;SDS011;49026;52.600;4.694;2023-04-07T13:55:26;14.82;;;5.03;;
62724;SDS011;49026;52.600;4.694;2023-04-07T13:57:51;16.48;;;5.38;;
62724;SDS011;49026;52.600;4.694;2023-04-07T14:00:17;12.85;;;4.85;;
62724;SDS011;49026;52.600;4.694;2023-04-07T14:02:42;18.80;;;5.47;;
62724;SDS011;49026;52.600;4.694;2023-04-07T14:05:09;16.75;;;6.72;;
62724;SDS011;49026;52.600;4.694;2023-04-07T14:07:37;20.85;;;7.72;;
62724;SDS011;49026;52.600;4.694;2023-04-07T14:10:02;15.43;;;6.45;;
62724;SDS011;49026;52.600;4.694;2023-04-07T14:12:28;15.43;;;6.38;;
62724;SDS011;49026;52.600;4.694;2023-04-07T14:14:55;16.95;;;6.43;;
62724;SDS011;49026;52.600;4.694;2023-04-07T14:17:21;24.60;;;8.15;;
62724;SDS011;49026;52.600;4.694;2023-04-07T14:19:46;21.77;;;8.27;;
62724;SDS011;49026;52.600;4.694;2023-04-07T14:22:12;20.90;;;7.93;;
62724;SDS011;49026;52.600;4.694;2023-04-07T14:24:38;15.13;;;6.85;;
62724;SDS011;49026;52.600;4.694;2023-04-07T14:27:04;20.00;;;7.68;;
62724;SDS011;49026;52.600;4.694;2023-04-07T14:29:29;17.17;;;7.25;;
62724;SDS011;49026;52.600;4.694;2023-04-07T14:31:55;15.25;;;6.28;;
62724;SDS011;49026;52.600;4.694;2023-04-07T14:34:20;16.88;;;7.72;;
62724;SDS011;49026;52.600;4.694;2023-04-07T14:36:55;14.85;;;7.30;;
62724;SDS011;49026;52.600;4.694;2023-04-07T14:39:22;21.45;;;9.20;;
62724;SDS011;49026;52.600;4.694;2023-04-07T14:41:51;19.17;;;8.85;;
62724;SDS011;49026;52.600;4.694;2023-04-07T14:44:17;21.35;;;9.45;;
62724;SDS011;49026;52.600;4.694;2023-04-07T14:46:42;23.08;;;9.27;;
62724;SDS011;49026;52.600;4.694;2023-04-07T14:49:08;21.75;;;8.98;;
62724;SDS011;49026;52.600;4.694;2023-04-07T14:51:33;16.70;;;8.13;;
62724;SDS011;49026;52.600;4.694;2023-04-07T14:53:59;24.05;;;8.68;;